sensor_id;sensor_type;location;lat;lon;timestamp;P1;durP1;ratioP1;P2;durP2;ratioP2
64186;SDS011;50491;39.484;-8.540;2022-11-14T00:02:40;16.55;;;9.73;;
64186;SDS011;50491;39.484;-8.540;2022-11-14T00:05:31;13.25;;;8.88;;
64186;SDS011;50491;39.484;-8.540;2022-11-14T00:07:51;14.90;;;8.98;;
64186;SDS011;50491;39.484;-8.540;2022-11-14T00:13:07;19.83;;;9.38;;
64186;SDS011;50491;39.484;-8.540;2022-11-14T00:15:26;17.00;;;9.20;;
64186;SDS011;50491;39.484;-8.540;2022-11-14T00:17:45;12.45;;;7.93;;
64186;SDS011;50491;39.484;-8.540;2022-11-14T00:20:04;16.38;;;9.07;;
64186;SDS011;50491;39.484;-8.540;2022-11-14T00:31:20;16.63;;;10.10;;
64186;SDS011;50491;39.484;-8.540;2022-11-14T00:33:58;20.65;;;10.48;;
64186;SDS011;50491;39.484;-8.540;2022-11-14T00:42:10;18.35;;;9.30;;
64186;SDS011;50491;39.484;-8.540;2022-11-14T00:44:29;16.85;;;10.60;;
64186;SDS011;50491;39.484;-8.540;2022-11-14T00:55:20;15.60;;;8.68;;
64186;SDS011;50491;39.484;-8.540;2022-11-14T00:57:39;18.70;;;9.25;;
64186;SDS011;50491;39.484;-8.540;2022-11-14T00:59:58;16.92;;;8.82;;
64186;SDS011;50491;39.484;-8.540;2022-11-14T01:04:55;14.07;;;8.82;;
64186;SDS011;50491;39.484;-8.540;2022-11-14T01:07:14;15.27;;;9.10;;
64186;SDS011;50491;39.484;-8.540;2022-11-14T01:09:33;16.48;;;8.70;;
64186;SDS011;50491;39.484;-8.540;2022-11-14T01:11:53;12.00;;;7.88;;
64186;SDS011;50491;39.484;-8.540;2022-11-14T01:14:12;17.02;;;9.40;;
64186;SDS011;50491;39.484;-8.540;2022-11-14T01:16:31;20.88;;;11.35;;
64186;SDS011;50491;39.484;-8.540;2022-11-14T01:18:51;15.25;;;9.27;;
64186;SDS011;50491;39.484;-8.540;2022-11-14T01:21:10;14.82;;;8.25;;
64186;SDS011;50491;39.484;-8.540;2022-11-14T01:23:30;13.55;;;8.57;;
64186;SDS011;50491;39.484;-8.540;2022-11-14T01:25:49;13.95;;;7.70;;
64186;SDS011;50491;39.484;-8.540;2022-11-14T01:28:10;12.45;;;8.07;;
64186;SDS011;50491;39.484;-8.540;2022-11-14T01:30:49;11.93;;;7.45;;
64186;SDS011;50491;39.484;-8.540;2022-11-14T01:33:34;12.98;;;8.52;;
64186;SDS011;50491;39.484;-8.540;2022-11-14T01:35:53;13.02;;;7.05;;
64186;SDS011;50491;39.484;-8.540;2022-11-14T01:38:30;10.70;;;6.63;;
64186;SDS011;50491;39.484;-8.540;2022-11-14T01:40:50;11.88;;;6.80;;
64186;SDS011;50491;39.484;-8.540;2022-11-14T01:46:01;16.60;;;8.05;;
64186;SDS011;50491;39.484;-8.540;2022-11-14T01:51:49;12.43;;;7.07;;
64186;SDS011;50491;39.484;-8.540;2022-11-14T01:54:16;14.13;;;8.40;;
64186;SDS011;50491;39.484;-8.540;2022-11-14T01:56:46;14.75;;;8.65;;
64186;SDS011;50491;39.484;-8.540;2022-11-14T01:59:10;11.32;;;7.90;;
64186;SDS011;50491;39.484;-8.540;2022-11-14T02:01:33;17.95;;;8.52;;
64186;SDS011;50491;39.484;-8.540;2022-11-14T02:03:55;12.27;;;7.20;;
64186;SDS011;50491;39.484;-8.540;2022-11-14T02:08:52;13.88;;;8.35;;
64186;SDS011;50491;39.484;-8.540;2022-11-14T02:11:32;11.57;;;7.10;;
64186;SDS011;50491;39.484;-8.540;2022-11-14T02:14:20;11.07;;;6.47;;
64186;SDS011;50491;39.484;-8.540;2022-11-14T02:16:40;11.45;;;7.22;;
64186;SDS011;50491;39.484;-8.540;2022-11-14T02:22:02;11.90;;;7.20;;
64186;SDS011;50491;39.484;-8.540;2022-11-14T02:27:00;10.43;;;5.88;;
64186;SDS011;50491;39.484;-8.540;2022-11-14T02:32:35;8.95;;;4.55;;
64186;SDS011;50491;39.484;-8.540;2022-11-14T02:35:13;6.07;;;3.95;;
64186;SDS011;50491;39.484;-8.540;2022-11-14T02:40:29;4.38;;;3.33;;
64186;SDS011;50491;39.484;-8.540;2022-11-14T02:42:48;4.65;;;3.15;;
64186;SDS011;50491;39.484;-8.540;2022-11-14T02:45:08;4.07;;;3.03;;
64186;SDS011;50491;39.484;-8.540;2022-11-14T02:50:38;8.93;;;4.35;;
64186;SDS011;50491;39.484;-8.540;2022-11-14T02:52:57;4.80;;;3.10;;
64186;SDS011;50491;39.484;-8.540;2022-11-14T02:58:19;3.53;;;2.30;;
64186;SDS011;50491;39.484;-8.540;2022-11-14T03:01:04;3.53;;;2.20;;
64186;SDS011;50491;39.484;-8.540;2022-11-14T03:06:45;4.47;;;2.58;;
64186;SDS011;50491;39.484;-8.540;2022-11-14T03:09:04;3.17;;;1.95;;
64186;SDS011;50491;39.484;-8.540;2022-11-14T03:11:24;4.13;;;2.50;;
64186;SDS011;50491;39.484;-8.540;2022-11-14T03:13:42;1.48;;;1.40;;
64186;SDS011;50491;39.484;-8.540;2022-11-14T03:16:08;3.88;;;2.20;;
64186;SDS011;50491;39.484;-8.540;2022-11-14T03:22:03;2.83;;;1.75;;
64186;SDS011;50491;39.484;-8.540;2022-11-14T03:24:22;1.77;;;1.50;;
64186;SDS011;50491;39.484;-8.540;2022-11-14T03:26:41;1.85;;;1.58;;
64186;SDS011;50491;39.484;-8.540;2022-11-14T03:29:00;1.60;;;1.50;;
64186;SDS011;50491;39.484;-8.540;2022-11-14T03:31:26;1.83;;;1.73;;
64186;SDS011;50491;39.484;-8.540;2022-11-14T03:33:44;2.40;;;1.65;;
64186;SDS011;50491;39.484;-8.540;2022-11-14T03:36:04;2.20;;;1.10;;
64186;SDS011;50491;39.484;-8.540;2022-11-14T03:38:23;1.25;;;1.10;;
64186;SDS011;50491;39.484;-8.540;2022-11-14T03:40:42;2.70;;;1.52;;
64186;SDS011;50491;39.484;-8.540;2022-11-14T03:43:33;2.85;;;1.20;;
64186;SDS011;50491;39.484;-8.540;2022-11-14T03:45:53;1.15;;;1.00;;
64186;SDS011;50491;39.484;-8.540;2022-11-14T03:48:16;3.85;;;0.90;;
64186;SDS011;50491;39.484;-8.540;2022-11-14T03:50:35;1.27;;;1.20;;
64186;SDS011;50491;39.484;-8.540;2022-11-14T03:52:54;1.15;;;1.02;;
64186;SDS011;50491;39.484;-8.540;2022-11-14T03:55:13;3.95;;;1.13;;
64186;SDS011;50491;39.484;-8.540;2022-11-14T03:57:51;1.63;;;1.10;;
64186;SDS011;50491;39.484;-8.540;2022-11-14T04:03:07;2.28;;;0.98;;
64186;SDS011;50491;39.484;-8.540;2022-11-14T04:05:26;1.42;;;1.33;;
64186;SDS011;50491;39.484;-8.540;2022-11-14T04:07:46;1.00;;;1.00;;
64186;SDS011;50491;39.484;-8.540;2022-11-14T04:10:05;1.95;;;0.88;;
64186;SDS011;50491;39.484;-8.540;2022-11-14T04:12:24;0.82;;;0.82;;
64186;SDS011;50491;39.484;-8.540;2022-11-14T04:14:44;1.73;;;0.90;;
64186;SDS011;50491;39.484;-8.540;2022-11-14T04:17:03;0.95;;;0.95;;
64186;SDS011;50491;39.484;-8.540;2022-11-14T04:19:22;1.20;;;0.88;;
64186;SDS011;50491;39.484;-8.540;2022-11-14T04:27:54;0.77;;;0.77;;
64186;SDS011;50491;39.484;-8.540;2022-11-14T04:30:13;0.90;;;0.90;;
64186;SDS011;50491;39.484;-8.540;2022-11-14T04:32:39;0.68;;;0.68;;
64186;SDS011;50491;39.484;-8.540;2022-11-14T04:41:09;2.05;;;1.00;;
64186;SDS011;50491;39.484;-8.540;2022-11-14T04:43:47;1.20;;;0.80;;
64186;SDS011;50491;39.484;-8.540;2022-11-14T04:49:03;1.13;;;1.02;;
64186;SDS011;50491;39.484;-8.540;2022-11-14T04:51:40;2.70;;;0.77;;
64186;SDS011;50491;39.484;-8.540;2022-11-14T04:54:00;1.80;;;1.00;;
64186;SDS011;50491;39.484;-8.540;2022-11-14T04:56:19;1.10;;;1.00;;
64186;SDS011;50491;39.484;-8.540;2022-11-14T04:58:40;1.08;;;1.08;;
64186;SDS011;50491;39.484;-8.540;2022-11-14T05:01:05;1.35;;;0.73;;
64186;SDS011;50491;39.484;-8.540;2022-11-14T05:03:25;1.60;;;1.02;;
64186;SDS011;50491;39.484;-8.540;2022-11-14T05:05:44;2.60;;;0.90;;
64186;SDS011;50491;39.484;-8.540;2022-11-14T05:11:19;1.23;;;0.80;;
64186;SDS011;50491;39.484;-8.540;2022-11-14T05:13:38;1.52;;;1.42;;
64186;SDS011;50491;39.484;-8.540;2022-11-14T05:16:04;0.93;;;0.93;;
64186;SDS011;50491;39.484;-8.540;2022-11-14T05:21:01;0.70;;;0.70;;
64186;SDS011;50491;39.484;-8.540;2022-11-14T05:26:17;1.85;;;1.10;;
64186;SDS011;50491;39.484;-8.540;2022-11-14T05:39:46;1.48;;;0.90;;
64186;SDS011;50491;39.484;-8.540;2022-11-14T05:42:05;0.80;;;0.80;;
64186;SDS011;50491;39.484;-8.540;2022-11-14T05:44:24;7.28;;;1.20;;
64186;SDS011;50491;39.484;-8.540;2022-11-14T05:47:09;2.22;;;1.10;;
64186;SDS011;50491;39.484;-8.540;2022-11-14T05:52:45;0.75;;;0.75;;
64186;SDS011;50491;39.484;-8.540;2022-11-14T05:55:22;1.40;;;1.20;;
64186;SDS011;50491;39.484;-8.540;2022-11-14T06:00:20;2.10;;;1.00;;
64186;SDS011;50491;39.484;-8.540;2022-11-14T06:02:39;3.70;;;1.20;;
64186;SDS011;50491;39.484;-8.540;2022-11-14T06:04:58;0.90;;;0.90;;
64186;SDS011;50491;39.484;-8.540;2022-11-14T06:24:10;2.30;;;0.95;;
64186;SDS011;50491;39.484;-8.540;2022-11-14T06:26:29;3.47;;;1.25;;
64186;SDS011;50491;39.484;-8.540;2022-11-14T06:29:08;1.17;;;1.08;;
64186;SDS011;50491;39.484;-8.540;2022-11-14T06:31:27;2.15;;;1.55;;
64186;SDS011;50491;39.484;-8.540;2022-11-14T06:36:44;2.67;;;1.50;;
64186;SDS011;50491;39.484;-8.540;2022-11-14T06:39:21;1.17;;;1.13;;
64186;SDS011;50491;39.484;-8.540;2022-11-14T06:42:00;1.55;;;1.45;;
64186;SDS011;50491;39.484;-8.540;2022-11-14T06:44:20;1.40;;;1.30;;
64186;SDS011;50491;39.484;-8.540;2022-11-14T06:46:38;1.42;;;1.15;;
64186;SDS011;50491;39.484;-8.540;2022-11-14T06:48:57;2.67;;;1.67;;
64186;SDS011;50491;39.484;-8.540;2022-11-14T06:51:17;2.80;;;1.55;;
64186;SDS011;50491;39.484;-8.540;2022-11-14T06:53:37;1.40;;;1.30;;
64186;SDS011;50491;39.484;-8.540;2022-11-14T06:58:15;2.63;;;1.83;;
64186;SDS011;50491;39.484;-8.540;2022-11-14T07:00:34;1.63;;;1.52;;
64186;SDS011;50491;39.484;-8.540;2022-11-14T07:02:53;3.00;;;2.70;;
64186;SDS011;50491;39.484;-8.540;2022-11-14T07:05:12;3.28;;;1.70;;
64186;SDS011;50491;39.484;-8.540;2022-11-14T07:08:03;1.83;;;1.50;;
64186;SDS011;50491;39.484;-8.540;2022-11-14T07:10:22;4.78;;;1.55;;
64186;SDS011;50491;39.484;-8.540;2022-11-14T07:12:41;1.60;;;1.50;;
64186;SDS011;50491;39.484;-8.540;2022-11-14T07:15:01;2.72;;;1.60;;
64186;SDS011;50491;39.484;-8.540;2022-11-14T07:17:19;5.28;;;1.77;;
64186;SDS011;50491;39.484;-8.540;2022-11-14T07:19:39;2.00;;;1.50;;
64186;SDS011;50491;39.484;-8.540;2022-11-14T07:22:23;3.08;;;1.63;;
64186;SDS011;50491;39.484;-8.540;2022-11-14T07:24:50;1.63;;;1.38;;
64186;SDS011;50491;39.484;-8.540;2022-11-14T07:27:09;1.85;;;1.58;;
64186;SDS011;50491;39.484;-8.540;2022-11-14T07:29:31;2.92;;;1.45;;
64186;SDS011;50491;39.484;-8.540;2022-11-14T07:31:50;1.40;;;1.27;;
64186;SDS011;50491;39.484;-8.540;2022-11-14T07:34:09;1.48;;;1.23;;
64186;SDS011;50491;39.484;-8.540;2022-11-14T07:36:54;1.52;;;1.40;;
64186;SDS011;50491;39.484;-8.540;2022-11-14T07:39:13;3.13;;;1.70;;
64186;SDS011;50491;39.484;-8.540;2022-11-14T07:41:32;2.17;;;1.33;;
64186;SDS011;50491;39.484;-8.540;2022-11-14T07:43:51;2.20;;;1.30;;
64186;SDS011;50491;39.484;-8.540;2022-11-14T07:46:11;1.38;;;1.30;;
64186;SDS011;50491;39.484;-8.540;2022-11-14T07:48:32;1.60;;;1.42;;
64186;SDS011;50491;39.484;-8.540;2022-11-14T07:50:52;2.03;;;1.48;;
64186;SDS011;50491;39.484;-8.540;2022-11-14T07:53:11;2.17;;;1.23;;
64186;SDS011;50491;39.484;-8.540;2022-11-14T07:55:30;1.73;;;1.50;;
64186;SDS011;50491;39.484;-8.540;2022-11-14T07:58:22;1.88;;;1.50;;
64186;SDS011;50491;39.484;-8.540;2022-11-14T08:00:41;1.90;;;1.65;;
64186;SDS011;50491;39.484;-8.540;2022-11-14T08:03:00;2.25;;;1.65;;
64186;SDS011;50491;39.484;-8.540;2022-11-14T08:05:19;4.35;;;2.10;;
64186;SDS011;50491;39.484;-8.540;2022-11-14T08:07:38;1.95;;;1.77;;
64186;SDS011;50491;39.484;-8.540;2022-11-14T08:09:57;3.55;;;2.40;;
64186;SDS011;50491;39.484;-8.540;2022-11-14T08:12:16;6.18;;;2.42;;
64186;SDS011;50491;39.484;-8.540;2022-11-14T08:14:36;3.40;;;2.00;;
64186;SDS011;50491;39.484;-8.540;2022-11-14T08:16:55;1.73;;;1.58;;
64186;SDS011;50491;39.484;-8.540;2022-11-14T08:19:14;5.50;;;1.80;;
64186;SDS011;50491;39.484;-8.540;2022-11-14T08:21:34;2.17;;;1.92;;
64186;SDS011;50491;39.484;-8.540;2022-11-14T08:23:53;3.60;;;2.05;;
64186;SDS011;50491;39.484;-8.540;2022-11-14T08:28:38;3.63;;;1.95;;
64186;SDS011;50491;39.484;-8.540;2022-11-14T08:31:29;6.82;;;4.75;;
64186;SDS011;50491;39.484;-8.540;2022-11-14T08:33:55;12.57;;;9.18;;
64186;SDS011;50491;39.484;-8.540;2022-11-14T08:36:14;5.00;;;3.85;;
64186;SDS011;50491;39.484;-8.540;2022-11-14T08:38:34;11.70;;;7.82;;
64186;SDS011;50491;39.484;-8.540;2022-11-14T08:40:56;9.75;;;7.47;;
64186;SDS011;50491;39.484;-8.540;2022-11-14T08:43:16;10.27;;;8.40;;
64186;SDS011;50491;39.484;-8.540;2022-11-14T08:45:36;8.77;;;7.07;;
64186;SDS011;50491;39.484;-8.540;2022-11-14T08:47:55;11.32;;;5.00;;
64186;SDS011;50491;39.484;-8.540;2022-11-14T08:50:14;5.07;;;4.15;;
64186;SDS011;50491;39.484;-8.540;2022-11-14T08:52:33;9.85;;;3.67;;
64186;SDS011;50491;39.484;-8.540;2022-11-14T08:58:15;5.82;;;3.55;;
64186;SDS011;50491;39.484;-8.540;2022-11-14T09:00:34;5.60;;;3.55;;
64186;SDS011;50491;39.484;-8.540;2022-11-14T09:02:53;6.15;;;3.25;;
64186;SDS011;50491;39.484;-8.540;2022-11-14T09:05:13;6.75;;;3.17;;
64186;SDS011;50491;39.484;-8.540;2022-11-14T09:07:32;3.97;;;3.20;;
64186;SDS011;50491;39.484;-8.540;2022-11-14T09:09:52;4.03;;;3.13;;
64186;SDS011;50491;39.484;-8.540;2022-11-14T09:12:11;3.53;;;3.05;;
64186;SDS011;50491;39.484;-8.540;2022-11-14T09:14:56;3.08;;;2.53;;
64186;SDS011;50491;39.484;-8.540;2022-11-14T09:17:14;4.05;;;2.40;;
64186;SDS011;50491;39.484;-8.540;2022-11-14T09:19:34;2.58;;;1.95;;
64186;SDS011;50491;39.484;-8.540;2022-11-14T09:21:53;2.78;;;2.17;;
64186;SDS011;50491;39.484;-8.540;2022-11-14T09:24:13;4.57;;;2.35;;
64186;SDS011;50491;39.484;-8.540;2022-11-14T09:26:32;2.97;;;1.70;;
64186;SDS011;50491;39.484;-8.540;2022-11-14T09:28:52;2.80;;;1.65;;
64186;SDS011;50491;39.484;-8.540;2022-11-14T09:31:11;4.47;;;2.15;;
64186;SDS011;50491;39.484;-8.540;2022-11-14T09:33:31;4.28;;;3.33;;
64186;SDS011;50491;39.484;-8.540;2022-11-14T09:36:01;2.90;;;1.90;;
64186;SDS011;50491;39.484;-8.540;2022-11-14T09:38:22;7.45;;;2.10;;
64186;SDS011;50491;39.484;-8.540;2022-11-14T09:45:53;4.10;;;2.45;;
64186;SDS011;50491;39.484;-8.540;2022-11-14T09:48:14;2.30;;;2.10;;
64186;SDS011;50491;39.484;-8.540;2022-11-14T09:50:36;3.22;;;2.15;;
64186;SDS011;50491;39.484;-8.540;2022-11-14T09:53:02;2.78;;;1.45;;
64186;SDS011;50491;39.484;-8.540;2022-11-14T09:55:28;1.73;;;1.63;;
64186;SDS011;50491;39.484;-8.540;2022-11-14T09:57:48;1.45;;;1.35;;
64186;SDS011;50491;39.484;-8.540;2022-11-14T10:00:15;2.45;;;2.25;;
64186;SDS011;50491;39.484;-8.540;2022-11-14T10:02:40;3.90;;;2.50;;
64186;SDS011;50491;39.484;-8.540;2022-11-14T10:35:03;1.00;;;1.00;;
64186;SDS011;50491;39.484;-8.540;2022-11-14T10:37:32;1.55;;;1.45;;
64186;SDS011;50491;39.484;-8.540;2022-11-14T10:39:54;4.28;;;1.20;;
64186;SDS011;50491;39.484;-8.540;2022-11-14T10:42:24;2.15;;;1.10;;
64186;SDS011;50491;39.484;-8.540;2022-11-14T10:47:45;4.18;;;1.23;;
64186;SDS011;50491;39.484;-8.540;2022-11-14T10:50:17;1.37;;;1.00;;
64186;SDS011;50491;39.484;-8.540;2022-11-14T10:52:38;1.20;;;0.93;;
64186;SDS011;50491;39.484;-8.540;2022-11-14T10:55:02;2.15;;;1.80;;
64186;SDS011;50491;39.484;-8.540;2022-11-14T10:57:24;1.38;;;0.95;;
64186;SDS011;50491;39.484;-8.540;2022-11-14T10:59:46;2.50;;;1.30;;
64186;SDS011;50491;39.484;-8.540;2022-11-14T11:02:05;2.97;;;1.00;;
64186;SDS011;50491;39.484;-8.540;2022-11-14T11:04:31;1.40;;;1.13;;
64186;SDS011;50491;39.484;-8.540;2022-11-14T11:06:55;3.10;;;1.55;;
64186;SDS011;50491;39.484;-8.540;2022-11-14T11:09:23;8.32;;;4.68;;
64186;SDS011;50491;39.484;-8.540;2022-11-14T11:12:03;2.80;;;2.00;;
64186;SDS011;50491;39.484;-8.540;2022-11-14T11:14:23;7.60;;;2.30;;
64186;SDS011;50491;39.484;-8.540;2022-11-14T11:16:43;1.98;;;1.27;;
64186;SDS011;50491;39.484;-8.540;2022-11-14T11:19:14;2.55;;;1.30;;
64186;SDS011;50491;39.484;-8.540;2022-11-14T11:21:47;4.35;;;1.05;;
64186;SDS011;50491;39.484;-8.540;2022-11-14T11:24:08;3.55;;;1.52;;
64186;SDS011;50491;39.484;-8.540;2022-11-14T11:26:28;4.72;;;2.17;;
64186;SDS011;50491;39.484;-8.540;2022-11-14T11:31:27;1.15;;;1.05;;
64186;SDS011;50491;39.484;-8.540;2022-11-14T11:33:47;3.83;;;1.83;;
64186;SDS011;50491;39.484;-8.540;2022-11-14T11:36:09;2.20;;;1.30;;
64186;SDS011;50491;39.484;-8.540;2022-11-14T11:38:31;2.85;;;1.83;;
64186;SDS011;50491;39.484;-8.540;2022-11-14T11:40:53;2.50;;;1.50;;
64186;SDS011;50491;39.484;-8.540;2022-11-14T11:43:23;2.70;;;1.40;;
64186;SDS011;50491;39.484;-8.540;2022-11-14T11:45:46;4.13;;;1.55;;
64186;SDS011;50491;39.484;-8.540;2022-11-14T11:48:32;2.05;;;0.77;;
64186;SDS011;50491;39.484;-8.540;2022-11-14T11:50:52;1.13;;;0.70;;
64186;SDS011;50491;39.484;-8.540;2022-11-14T11:56:18;0.60;;;0.60;;
64186;SDS011;50491;39.484;-8.540;2022-11-14T11:58:50;0.80;;;0.80;;
64186;SDS011;50491;39.484;-8.540;2022-11-14T12:04:10;0.68;;;0.68;;
64186;SDS011;50491;39.484;-8.540;2022-11-14T12:06:29;1.70;;;0.68;;
64186;SDS011;50491;39.484;-8.540;2022-11-14T12:11:38;0.80;;;0.63;;
64186;SDS011;50491;39.484;-8.540;2022-11-14T12:14:06;2.58;;;0.88;;
64186;SDS011;50491;39.484;-8.540;2022-11-14T12:19:23;0.85;;;0.85;;
64186;SDS011;50491;39.484;-8.540;2022-11-14T12:30:00;1.55;;;1.08;;
64186;SDS011;50491;39.484;-8.540;2022-11-14T12:32:35;3.22;;;1.02;;
64186;SDS011;50491;39.484;-8.540;2022-11-14T12:34:58;0.75;;;0.73;;
64186;SDS011;50491;39.484;-8.540;2022-11-14T12:37:23;2.15;;;1.52;;
64186;SDS011;50491;39.484;-8.540;2022-11-14T12:39:56;1.10;;;0.80;;
64186;SDS011;50491;39.484;-8.540;2022-11-14T12:42:25;1.00;;;0.80;;
64186;SDS011;50491;39.484;-8.540;2022-11-14T12:44:45;1.77;;;0.80;;
64186;SDS011;50491;39.484;-8.540;2022-11-14T12:52:39;1.75;;;0.90;;
64186;SDS011;50491;39.484;-8.540;2022-11-14T12:55:02;2.58;;;0.82;;
64186;SDS011;50491;39.484;-8.540;2022-11-14T12:57:28;2.58;;;0.93;;
64186;SDS011;50491;39.484;-8.540;2022-11-14T13:00:08;2.33;;;1.30;;
64186;SDS011;50491;39.484;-8.540;2022-11-14T13:02:34;1.58;;;1.00;;
64186;SDS011;50491;39.484;-8.540;2022-11-14T13:05:22;1.63;;;1.20;;
64186;SDS011;50491;39.484;-8.540;2022-11-14T13:07:53;1.55;;;1.38;;
64186;SDS011;50491;39.484;-8.540;2022-11-14T13:10:22;1.67;;;0.85;;
64186;SDS011;50491;39.484;-8.540;2022-11-14T13:13:07;1.85;;;1.20;;
64186;SDS011;50491;39.484;-8.540;2022-11-14T13:15:56;1.75;;;0.75;;
64186;SDS011;50491;39.484;-8.540;2022-11-14T13:18:34;1.00;;;0.90;;
64186;SDS011;50491;39.484;-8.540;2022-11-14T13:21:26;2.92;;;0.90;;
64186;SDS011;50491;39.484;-8.540;2022-11-14T13:24:05;1.90;;;0.88;;
64186;SDS011;50491;39.484;-8.540;2022-11-14T13:28:45;0.88;;;0.73;;
64186;SDS011;50491;39.484;-8.540;2022-11-14T13:33:39;2.13;;;1.27;;
64186;SDS011;50491;39.484;-8.540;2022-11-14T13:36:02;0.80;;;0.80;;
64186;SDS011;50491;39.484;-8.540;2022-11-14T13:46:12;0.95;;;0.80;;
64186;SDS011;50491;39.484;-8.540;2022-11-14T13:50:59;2.45;;;1.38;;
64186;SDS011;50491;39.484;-8.540;2022-11-14T13:53:22;1.30;;;1.20;;
64186;SDS011;50491;39.484;-8.540;2022-11-14T14:01:14;2.08;;;0.75;;
64186;SDS011;50491;39.484;-8.540;2022-11-14T14:06:18;2.05;;;0.80;;
64186;SDS011;50491;39.484;-8.540;2022-11-14T14:11:43;0.90;;;0.73;;
64186;SDS011;50491;39.484;-8.540;2022-11-14T14:17:17;0.88;;;0.70;;
64186;SDS011;50491;39.484;-8.540;2022-11-14T14:19:51;0.90;;;0.60;;
64186;SDS011;50491;39.484;-8.540;2022-11-14T14:22:26;1.98;;;0.80;;
64186;SDS011;50491;39.484;-8.540;2022-11-14T14:30:46;2.97;;;1.08;;
64186;SDS011;50491;39.484;-8.540;2022-11-14T14:33:18;1.92;;;0.70;;
64186;SDS011;50491;39.484;-8.540;2022-11-14T14:35:38;1.17;;;0.68;;
64186;SDS011;50491;39.484;-8.540;2022-11-14T14:38:09;0.70;;;0.70;;
64186;SDS011;50491;39.484;-8.540;2022-11-14T14:40:33;2.08;;;0.80;;
64186;SDS011;50491;39.484;-8.540;2022-11-14T14:42:53;2.13;;;1.08;;
64186;SDS011;50491;39.484;-8.540;2022-11-14T14:45:16;2.35;;;1.20;;
64186;SDS011;50491;39.484;-8.540;2022-11-14T14:47:38;0.90;;;0.90;;
64186;SDS011;50491;39.484;-8.540;2022-11-14T14:49:59;6.50;;;1.20;;
64186;SDS011;50491;39.484;-8.540;2022-11-14T14:52:29;2.22;;;1.30;;
64186;SDS011;50491;39.484;-8.540;2022-11-14T14:54:54;2.78;;;1.17;;
64186;SDS011;50491;39.484;-8.540;2022-11-14T14:57:16;2.10;;;0.98;;
64186;SDS011;50491;39.484;-8.540;2022-11-14T14:59:35;2.20;;;0.90;;
64186;SDS011;50491;39.484;-8.540;2022-11-14T15:01:55;2.30;;;0.88;;
64186;SDS011;50491;39.484;-8.540;2022-11-14T15:04:15;2.45;;;1.10;;
64186;SDS011;50491;39.484;-8.540;2022-11-14T15:06:36;1.10;;;0.85;;
64186;SDS011;50491;39.484;-8.540;2022-11-14T15:11:25;1.73;;;0.95;;
64186;SDS011;50491;39.484;-8.540;2022-11-14T15:13:44;1.33;;;0.90;;
64186;SDS011;50491;39.484;-8.540;2022-11-14T15:16:04;3.17;;;1.15;;
64186;SDS011;50491;39.484;-8.540;2022-11-14T15:18:27;8.38;;;1.27;;
64186;SDS011;50491;39.484;-8.540;2022-11-14T15:24:17;1.83;;;0.85;;
64186;SDS011;50491;39.484;-8.540;2022-11-14T15:26:37;5.20;;;1.10;;
64186;SDS011;50491;39.484;-8.540;2022-11-14T15:29:04;2.03;;;1.10;;
64186;SDS011;50491;39.484;-8.540;2022-11-14T15:31:29;2.35;;;0.98;;
64186;SDS011;50491;39.484;-8.540;2022-11-14T15:34:05;2.25;;;1.25;;
64186;SDS011;50491;39.484;-8.540;2022-11-14T15:36:38;4.25;;;1.10;;
64186;SDS011;50491;39.484;-8.540;2022-11-14T15:39:26;2.65;;;0.98;;
64186;SDS011;50491;39.484;-8.540;2022-11-14T15:41:45;2.38;;;1.00;;
64186;SDS011;50491;39.484;-8.540;2022-11-14T15:44:04;4.88;;;1.00;;
64186;SDS011;50491;39.484;-8.540;2022-11-14T15:48:55;1.50;;;1.23;;
64186;SDS011;50491;39.484;-8.540;2022-11-14T15:51:14;1.73;;;1.23;;
64186;SDS011;50491;39.484;-8.540;2022-11-14T15:53:34;1.23;;;1.13;;
64186;SDS011;50491;39.484;-8.540;2022-11-14T15:55:52;1.88;;;1.20;;
64186;SDS011;50491;39.484;-8.540;2022-11-14T15:58:11;1.80;;;1.30;;
64186;SDS011;50491;39.484;-8.540;2022-11-14T16:00:31;4.38;;;1.70;;
64186;SDS011;50491;39.484;-8.540;2022-11-14T16:02:54;6.18;;;2.08;;
64186;SDS011;50491;39.484;-8.540;2022-11-14T16:05:15;4.15;;;2.35;;
64186;SDS011;50491;39.484;-8.540;2022-11-14T16:07:35;4.78;;;3.28;;
64186;SDS011;50491;39.484;-8.540;2022-11-14T16:09:54;4.72;;;2.78;;
64186;SDS011;50491;39.484;-8.540;2022-11-14T16:12:13;8.48;;;3.90;;
64186;SDS011;50491;39.484;-8.540;2022-11-14T16:14:32;8.00;;;3.75;;
64186;SDS011;50491;39.484;-8.540;2022-11-14T16:16:52;4.25;;;2.47;;
64186;SDS011;50491;39.484;-8.540;2022-11-14T16:19:12;5.18;;;2.20;;
64186;SDS011;50491;39.484;-8.540;2022-11-14T16:21:32;3.30;;;2.38;;
64186;SDS011;50491;39.484;-8.540;2022-11-14T16:23:53;4.13;;;2.45;;
64186;SDS011;50491;39.484;-8.540;2022-11-14T16:26:12;7.85;;;2.67;;
64186;SDS011;50491;39.484;-8.540;2022-11-14T16:28:31;2.65;;;2.03;;
64186;SDS011;50491;39.484;-8.540;2022-11-14T16:30:49;6.32;;;2.63;;
64186;SDS011;50491;39.484;-8.540;2022-11-14T16:33:08;3.00;;;2.67;;
64186;SDS011;50491;39.484;-8.540;2022-11-14T16:35:28;5.65;;;1.83;;
64186;SDS011;50491;39.484;-8.540;2022-11-14T16:37:47;4.32;;;2.25;;
64186;SDS011;50491;39.484;-8.540;2022-11-14T16:40:10;3.92;;;2.42;;
64186;SDS011;50491;39.484;-8.540;2022-11-14T16:42:31;6.95;;;2.38;;
64186;SDS011;50491;39.484;-8.540;2022-11-14T16:44:50;3.70;;;2.22;;
64186;SDS011;50491;39.484;-8.540;2022-11-14T16:47:11;7.05;;;2.60;;
64186;SDS011;50491;39.484;-8.540;2022-11-14T16:49:32;9.13;;;3.05;;
64186;SDS011;50491;39.484;-8.540;2022-11-14T16:52:00;3.15;;;2.35;;
64186;SDS011;50491;39.484;-8.540;2022-11-14T16:54:24;6.75;;;2.88;;
64186;SDS011;50491;39.484;-8.540;2022-11-14T16:56:44;1.90;;;1.40;;
64186;SDS011;50491;39.484;-8.540;2022-11-14T16:59:03;4.10;;;2.13;;
64186;SDS011;50491;39.484;-8.540;2022-11-14T17:01:23;6.38;;;1.80;;
64186;SDS011;50491;39.484;-8.540;2022-11-14T17:03:42;3.38;;;1.52;;
64186;SDS011;50491;39.484;-8.540;2022-11-14T17:06:01;2.92;;;1.70;;
64186;SDS011;50491;39.484;-8.540;2022-11-14T17:08:20;3.40;;;1.88;;
64186;SDS011;50491;39.484;-8.540;2022-11-14T17:10:39;2.65;;;2.17;;
64186;SDS011;50491;39.484;-8.540;2022-11-14T17:13:02;4.45;;;2.00;;
64186;SDS011;50491;39.484;-8.540;2022-11-14T17:15:21;5.15;;;2.05;;
64186;SDS011;50491;39.484;-8.540;2022-11-14T17:17:40;6.07;;;2.78;;
64186;SDS011;50491;39.484;-8.540;2022-11-14T17:20:04;4.95;;;3.00;;
64186;SDS011;50491;39.484;-8.540;2022-11-14T17:22:24;5.00;;;2.45;;
64186;SDS011;50491;39.484;-8.540;2022-11-14T17:24:44;7.88;;;3.17;;
64186;SDS011;50491;39.484;-8.540;2022-11-14T17:27:03;5.55;;;3.30;;
64186;SDS011;50491;39.484;-8.540;2022-11-14T17:29:22;6.47;;;2.92;;
64186;SDS011;50491;39.484;-8.540;2022-11-14T17:31:41;3.75;;;2.95;;
64186;SDS011;50491;39.484;-8.540;2022-11-14T17:34:01;6.07;;;3.38;;
64186;SDS011;50491;39.484;-8.540;2022-11-14T17:36:20;7.00;;;4.53;;
64186;SDS011;50491;39.484;-8.540;2022-11-14T17:38:40;8.48;;;5.70;;
64186;SDS011;50491;39.484;-8.540;2022-11-14T17:40:59;13.48;;;7.50;;
64186;SDS011;50491;39.484;-8.540;2022-11-14T17:43:18;16.35;;;10.07;;
64186;SDS011;50491;39.484;-8.540;2022-11-14T17:45:37;9.43;;;6.25;;
64186;SDS011;50491;39.484;-8.540;2022-11-14T17:47:56;10.98;;;6.30;;
64186;SDS011;50491;39.484;-8.540;2022-11-14T17:50:15;17.80;;;9.40;;
64186;SDS011;50491;39.484;-8.540;2022-11-14T17:52:35;15.52;;;6.85;;
64186;SDS011;50491;39.484;-8.540;2022-11-14T17:54:55;11.52;;;6.40;;
64186;SDS011;50491;39.484;-8.540;2022-11-14T17:57:14;14.05;;;6.43;;
64186;SDS011;50491;39.484;-8.540;2022-11-14T17:59:35;10.80;;;5.75;;
64186;SDS011;50491;39.484;-8.540;2022-11-14T18:01:55;7.80;;;4.45;;
64186;SDS011;50491;39.484;-8.540;2022-11-14T18:07:14;2.90;;;2.00;;
64186;SDS011;50491;39.484;-8.540;2022-11-14T18:09:52;5.47;;;2.55;;
64186;SDS011;50491;39.484;-8.540;2022-11-14T18:12:11;8.77;;;2.47;;
64186;SDS011;50491;39.484;-8.540;2022-11-14T18:14:30;5.18;;;2.95;;
64186;SDS011;50491;39.484;-8.540;2022-11-14T18:16:50;6.18;;;2.50;;
64186;SDS011;50491;39.484;-8.540;2022-11-14T18:19:09;3.90;;;1.92;;